Time;durP1;ratioP1;P1;durP2;ratioP2;P2;SDS_P1;SDS_P2;PMS_P1;PMS_P2;Temp;Humidity;BMP_temperature;BMP_pressure;BME280_temperature;BME280_humidity;BME280_pressure;Samples;Min_cycle;Max_cycle;Signal;HPM_P1;HPM_P2
2021/12/21 00:00:35;;;;;;;;;21.00;15.00;;;;;;;;5079198;28;11529;-81
2021/12/21 00:03:02;;;;;;;;;17.25;16.00;;;;;;;;5079753;28;11486;-79
2021/12/21 00:05:31;;;;;;;;;19.75;19.75;;;;;;;;5077094;28;11517;-81
2021/12/21 00:08:00;;;;;;;;;17.00;15.75;;;;;;;;5060677;28;11637;-81
2021/12/21 00:10:30;;;;;;;;;22.00;16.00;;;;;;;;5075943;28;11531;-77
2021/12/21 00:13:23;;;;;;;;;20.75;18.25;;;;;;;;5078956;28;11525;-77
2021/12/21 00:15:57;;;;;;;;;16.50;15.00;;;;;;;;5077979;28;11528;-77
2021/12/21 00:18:38;;;;;;;;;19.75;15.00;;;;;;;;5083255;28;11488;-76
2021/12/21 00:21:13;;;;;;;;;13.75;12.00;;;;;;;;5085368;28;11554;-79
2021/12/21 00:23:43;;;;;;;;;15.25;13.25;;;;;;;;5080301;28;11445;-84
2021/12/21 00:26:12;;;;;;;;;12.25;9.75;;;;;;;;5082433;28;11479;-78
2021/12/21 00:28:48;;;;;;;;;20.25;12.00;;;;;;;;5083229;28;11583;-82
2021/12/21 00:31:16;;;;;;;;;13.00;11.50;;;;;;;;5073278;28;11413;-79
2021/12/21 00:33:45;;;;;;;;;12.00;12.00;;;;;;;;5078799;28;11504;-79
2021/12/21 00:36:15;;;;;;;;;10.00;10.00;;;;;;;;5071354;28;11503;-76
2021/12/21 00:38:43;;;;;;;;;8.00;8.00;;;;;;;;5081732;28;11472;-83
2021/12/21 00:41:11;;;;;;;;;13.50;11.50;;;;;;;;5071494;28;11489;-83
2021/12/21 00:43:38;;;;;;;;;15.25;12.00;;;;;;;;5076994;28;11614;-82
2021/12/21 00:46:05;;;;;;;;;8.25;8.25;;;;;;;;5061202;28;11479;-76
2021/12/21 00:48:34;;;;;;;;;9.75;9.75;;;;;;;;5077158;28;11490;-76
2021/12/21 00:51:04;;;;;;;;;10.00;10.00;;;;;;;;5081003;28;11542;-80
2021/12/21 00:53:35;;;;;;;;;12.00;9.00;;;;;;;;5075989;28;11504;-79
2021/12/21 00:56:03;;;;;;;;;9.25;8.25;;;;;;;;5080673;28;11631;-77
2021/12/21 00:58:31;;;;;;;;;8.75;8.75;;;;;;;;5084104;28;11520;-80
2021/12/21 01:01:04;;;;;;;;;9.50;9.50;;;;;;;;5074448;28;11421;-79
2021/12/21 01:03:32;;;;;;;;;8.75;8.75;;;;;;;;5076100;28;11486;-77
2021/12/21 01:06:08;;;;;;;;;7.75;7.75;;;;;;;;5074260;28;11575;-78
2021/12/21 01:08:47;;;;;;;;;10.25;8.75;;;;;;;;5076347;28;11545;-78
2021/12/21 01:11:19;;;;;;;;;11.50;10.25;;;;;;;;5077923;28;12462;-75
2021/12/21 01:13:57;;;;;;;;;5.00;5.00;;;;;;;;5084616;28;11536;-79
2021/12/21 01:16:33;;;;;;;;;8.00;8.00;;;;;;;;5069968;28;11510;-76
2021/12/21 01:19:10;;;;;;;;;10.75;8.00;;;;;;;;5069739;28;11470;-74
2021/12/21 01:21:42;;;;;;;;;5.00;5.00;;;;;;;;5081876;28;11518;-81
2021/12/21 01:29:58;;;;;;;;;8.25;8.25;;;;;;;;4975916;28;11816;-77
2021/12/21 01:32:39;;;;;;;;;8.75;8.75;;;;;;;;5043976;28;11532;-83
2021/12/21 01:35:13;;;;;;;;;10.00;9.25;;;;;;;;5073155;28;11512;-77
2021/12/21 01:37:50;;;;;;;;;7.50;7.50;;;;;;;;5073423;28;11444;-81
2021/12/21 01:51:19;;;;;;;;;6.00;6.00;;;;;;;;5075149;28;12221;-82
2021/12/21 01:53:47;;;;;;;;;11.25;9.00;;;;;;;;5059915;28;11561;-77
2021/12/21 01:56:17;;;;;;;;;10.75;9.00;;;;;;;;5073120;28;11578;-79
2021/12/21 01:58:45;;;;;;;;;9.00;9.00;;;;;;;;5078751;28;11601;-78
2021/12/21 02:01:16;;;;;;;;;11.00;8.50;;;;;;;;5083055;28;11523;-81
2021/12/21 02:03:47;;;;;;;;;8.25;8.25;;;;;;;;5077069;28;11505;-82
2021/12/21 02:06:16;;;;;;;;;8.25;8.25;;;;;;;;5079669;28;12169;-82
2021/12/21 02:08:44;;;;;;;;;10.75;9.00;;;;;;;;5079221;28;11624;-81
2021/12/21 02:11:11;;;;;;;;;12.75;11.50;;;;;;;;5076430;28;11577;-81
2021/12/21 02:13:45;;;;;;;;;11.25;11.00;;;;;;;;5058325;28;11517;-78
2021/12/21 02:16:13;;;;;;;;;11.75;11.75;;;;;;;;5075047;28;11605;-81
2021/12/21 02:18:50;;;;;;;;;9.25;9.25;;;;;;;;5075590;28;11555;-83
2021/12/21 02:21:26;;;;;;;;;18.50;14.00;;;;;;;;5082171;28;11542;-80
2021/12/21 02:23:58;;;;;;;;;15.25;13.00;;;;;;;;5081407;28;11513;-77
2021/12/21 02:26:44;;;;;;;;;10.50;10.50;;;;;;;;5073363;28;11519;-78
2021/12/21 02:29:15;;;;;;;;;16.75;16.50;;;;;;;;5075947;28;11480;-83
2021/12/21 02:31:46;;;;;;;;;14.75;12.25;;;;;;;;5068898;28;11458;-82
2021/12/21 02:34:13;;;;;;;;;13.75;13.75;;;;;;;;5054593;28;11544;-80
2021/12/21 02:36:44;;;;;;;;;15.00;15.00;;;;;;;;5071545;28;11630;-74
2021/12/21 02:39:12;;;;;;;;;13.00;12.00;;;;;;;;5057007;28;12351;-82
2021/12/21 02:41:41;;;;;;;;;17.25;14.00;;;;;;;;5069530;28;11521;-82
2021/12/21 02:44:08;;;;;;;;;18.00;11.67;;;;;;;;5073630;28;11505;-83
2021/12/21 02:46:38;;;;;;;;;23.00;19.00;;;;;;;;5075423;28;11578;-83
2021/12/21 02:49:06;;;;;;;;;16.75;16.75;;;;;;;;5071204;28;11669;-77
2021/12/21 02:51:33;;;;;;;;;20.00;19.25;;;;;;;;5070611;28;11531;-75
2021/12/21 02:54:02;;;;;;;;;15.00;15.00;;;;;;;;5070869;28;11583;-83
2021/12/21 02:56:29;;;;;;;;;21.50;19.75;;;;;;;;5073019;28;11536;-80
2021/12/21 02:58:56;;;;;;;;;19.00;19.00;;;;;;;;5077229;28;11537;-82
2021/12/21 03:01:24;;;;;;;;;20.25;16.75;;;;;;;;5073148;28;11532;-82
2021/12/21 03:03:53;;;;;;;;;12.00;12.00;;;;;;;;5057746;28;11559;-83
2021/12/21 03:06:52;;;;;;;;;12.00;11.50;;;;;;;;5076053;28;11584;-79
2021/12/21 03:09:37;;;;;;;;;21.00;17.25;;;;;;;;5073796;28;11513;-82
2021/12/21 03:12:31;;;;;;;;;18.25;17.50;;;;;;;;5072095;28;11675;-80
2021/12/21 03:14:58;;;;;;;;;18.25;18.25;;;;;;;;5066522;28;11520;-76
2021/12/21 03:17:26;;;;;;;;;12.25;12.25;;;;;;;;5071317;28;12334;-81
2021/12/21 03:19:53;;;;;;;;;14.25;13.00;;;;;;;;5073263;28;12466;-81
2021/12/21 03:22:20;;;;;;;;;18.00;15.75;;;;;;;;5072021;28;11529;-81
2021/12/21 03:24:49;;;;;;;;;14.00;14.00;;;;;;;;5080666;28;11542;-81
2021/12/21 03:27:16;;;;;;;;;14.00;11.75;;;;;;;;5069703;28;12314;-77
2021/12/21 03:29:43;;;;;;;;;17.00;15.50;;;;;;;;5078618;28;11564;-74
2021/12/21 03:32:11;;;;;;;;;17.75;12.00;;;;;;;;5072850;28;11487;-82
2021/12/21 03:34:38;;;;;;;;;16.75;15.00;;;;;;;;5070291;28;11634;-82
2021/12/21 03:37:11;;;;;;;;;14.50;12.50;;;;;;;;5079257;28;11608;-83
2021/12/21 03:39:39;;;;;;;;;15.00;13.00;;;;;;;;5051188;28;11510;-82
2021/12/21 03:42:10;;;;;;;;;11.25;11.25;;;;;;;;5078008;28;11530;-79
2021/12/21 03:44:37;;;;;;;;;19.25;12.50;;;;;;;;5071934;28;11506;-84
2021/12/21 03:47:05;;;;;;;;;14.75;13.50;;;;;;;;5069564;28;11627;-84
2021/12/21 03:52:23;;;;;;;;;20.00;15.00;;;;;;;;5074677;28;11583;-82
2021/12/21 03:54:52;;;;;;;;;6.50;6.25;;;;;;;;5066875;28;11619;-83
2021/12/21 03:57:21;;;;;;;;;15.00;12.25;;;;;;;;5076770;28;11525;-82
2021/12/21 03:59:49;;;;;;;;;16.25;13.25;;;;;;;;5057598;28;11672;-83
2021/12/21 04:02:19;;;;;;;;;16.50;15.00;;;;;;;;5072063;28;11578;-83
2021/12/21 04:04:48;;;;;;;;;11.50;8.25;;;;;;;;5081119;28;11588;-82
2021/12/21 04:07:15;;;;;;;;;18.00;13.50;;;;;;;;5062181;28;11575;-82
2021/12/21 04:09:43;;;;;;;;;15.50;12.50;;;;;;;;5078533;28;11552;-83
2021/12/21 04:12:11;;;;;;;;;16.75;13.00;;;;;;;;5073983;28;11526;-83
2021/12/21 04:14:40;;;;;;;;;14.00;14.00;;;;;;;;5068417;28;11594;-83
2021/12/21 04:17:15;;;;;;;;;14.50;13.00;;;;;;;;5076019;28;12516;-83
2021/12/21 04:19:43;;;;;;;;;17.25;13.00;;;;;;;;5069501;28;11537;-82
2021/12/21 04:22:10;;;;;;;;;16.75;14.50;;;;;;;;5068998;28;11577;-84
2021/12/21 04:24:38;;;;;;;;;16.00;16.00;;;;;;;;5066952;28;11531;-82
2021/12/21 04:27:06;;;;;;;;;20.75;15.25;;;;;;;;5053942;28;11527;-82
2021/12/21 04:29:33;;;;;;;;;12.50;12.50;;;;;;;;5075445;28;11567;-84
2021/12/21 04:32:02;;;;;;;;;17.00;12.00;;;;;;;;5068280;28;11441;-83
2021/12/21 04:34:31;;;;;;;;;19.00;16.75;;;;;;;;5083481;28;11526;-79
2021/12/21 04:36:58;;;;;;;;;13.00;11.33;;;;;;;;5076516;28;11648;-83
2021/12/21 04:39:33;;;;;;;;;16.00;12.25;;;;;;;;5073497;28;11515;-83
2021/12/21 04:42:01;;;;;;;;;12.75;11.00;;;;;;;;5077849;28;11548;-83
2021/12/21 04:44:28;;;;;;;;;13.25;11.00;;;;;;;;5071460;28;11499;-84
2021/12/21 04:46:55;;;;;;;;;14.00;14.00;;;;;;;;5075491;28;11486;-84
2021/12/21 04:49:24;;;;;;;;;10.00;10.00;;;;;;;;5075006;28;11560;-83
2021/12/21 04:51:51;;;;;;;;;9.50;9.50;;;;;;;;5079398;28;11607;-81
2021/12/21 04:54:19;;;;;;;;;11.75;11.75;;;;;;;;5077703;28;12568;-84
2021/12/21 04:56:46;;;;;;;;;9.00;9.00;;;;;;;;5080489;28;11530;-82
2021/12/21 04:59:14;;;;;;;;;16.67;13.33;;;;;;;;5076842;28;11528;-84
2021/12/21 05:01:41;;;;;;;;;10.33;10.33;;;;;;;;5073108;28;11510;-83
2021/12/21 05:04:08;;;;;;;;;15.67;12.00;;;;;;;;5076197;28;11632;-81
2021/12/21 05:06:37;;;;;;;;;14.00;13.33;;;;;;;;5077935;28;11494;-84
2021/12/21 05:09:10;;;;;;;;;17.67;15.00;;;;;;;;5057599;28;12279;-78
2021/12/21 05:11:40;;;;;;;;;14.67;12.00;;;;;;;;5060912;28;11647;-80
2021/12/21 05:14:09;;;;;;;;;14.33;12.00;;;;;;;;5073007;28;11596;-81
2021/12/21 05:16:37;;;;;;;;;19.67;14.67;;;;;;;;5072106;28;11552;-80
2021/12/21 05:19:04;;;;;;;;;12.00;12.00;;;;;;;;5073102;28;11523;-84
2021/12/21 05:21:32;;;;;;;;;8.00;8.00;;;;;;;;5077600;28;8842;-78
2021/12/21 05:24:01;;;;;;;;;11.00;11.00;;;;;;;;5065901;28;11496;-83
2021/12/21 05:26:28;;;;;;;;;11.00;11.00;;;;;;;;5071039;28;8872;-81
2021/12/21 05:28:56;;;;;;;;;16.33;16.33;;;;;;;;5078962;28;8918;-78
2021/12/21 05:31:23;;;;;;;;;11.33;11.33;;;;;;;;5069678;28;8827;-80
2021/12/21 05:33:52;;;;;;;;;11.33;11.33;;;;;;;;5084728;28;8854;-77
2021/12/21 05:36:20;;;;;;;;;15.00;15.00;;;;;;;;5082389;28;8854;-76
2021/12/21 05:38:51;;;;;;;;;16.33;14.00;;;;;;;;5082567;28;8869;-80
2021/12/21 05:41:27;;;;;;;;;13.67;12.33;;;;;;;;5071529;28;8849;-81
2021/12/21 05:43:54;;;;;;;;;14.00;13.33;;;;;;;;5075502;28;8877;-75
2021/12/21 05:46:22;;;;;;;;;11.00;9.00;;;;;;;;5063630;28;8892;-80
2021/12/21 05:48:51;;;;;;;;;14.00;14.00;;;;;;;;5063819;28;8887;-82
2021/12/21 05:51:20;;;;;;;;;10.00;10.00;;;;;;;;5075866;28;8994;-82
2021/12/21 05:53:47;;;;;;;;;13.33;13.33;;;;;;;;5081969;28;8940;-80
2021/12/21 05:56:15;;;;;;;;;12.67;12.67;;;;;;;;5075226;28;8912;-79
2021/12/21 05:58:43;;;;;;;;;14.00;12.00;;;;;;;;5085804;28;9004;-75
2021/12/21 06:01:11;;;;;;;;;11.00;11.00;;;;;;;;5075240;28;8808;-76
2021/12/21 06:03:38;;;;;;;;;16.33;16.33;;;;;;;;5075888;28;8870;-78
2021/12/21 06:06:11;;;;;;;;;14.00;14.00;;;;;;;;5084289;28;8882;-82
2021/12/21 06:08:38;;;;;;;;;14.00;14.00;;;;;;;;5078099;28;8838;-82
2021/12/21 06:11:07;;;;;;;;;13.67;13.67;;;;;;;;5073264;28;8885;-83
2021/12/21 06:22:43;;;;;;;;;23.33;23.33;;;;;;;;5074847;28;9698;-76
2021/12/21 06:27:42;;;;;;;;;20.67;18.67;;;;;;;;5072898;28;8914;-75
2021/12/21 06:30:11;;;;;;;;;15.33;15.33;;;;;;;;5070509;28;9014;-74
2021/12/21 06:32:41;;;;;;;;;18.00;18.00;;;;;;;;5073340;28;8888;-74
2021/12/21 06:35:10;;;;;;;;;15.67;14.00;;;;;;;;5077167;28;8862;-74
2021/12/21 06:37:38;;;;;;;;;17.67;17.67;;;;;;;;5081253;28;8901;-74
2021/12/21 06:40:06;;;;;;;;;16.67;15.00;;;;;;;;5081474;28;8835;-74
2021/12/21 06:42:35;;;;;;;;;6.33;6.33;;;;;;;;5084571;28;8846;-74
2021/12/21 06:45:10;;;;;;;;;16.67;16.67;;;;;;;;5076069;28;8881;-74
2021/12/21 06:53:10;;;;;;;;;11.67;11.00;;;;;;;;5081710;28;9800;-74
2021/12/21 06:55:37;;;;;;;;;11.00;11.00;;;;;;;;5084108;28;8838;-75
2021/12/21 06:58:04;;;;;;;;;12.33;12.33;;;;;;;;5075933;28;8910;-76
2021/12/21 07:00:32;;;;;;;;;12.33;12.33;;;;;;;;5073682;28;8800;-75
2021/12/21 07:03:02;;;;;;;;;15.33;12.00;;;;;;;;5080528;28;8900;-75
2021/12/21 07:05:31;;;;;;;;;13.67;13.67;;;;;;;;5082850;28;8919;-76
2021/12/21 07:07:58;;;;;;;;;10.00;10.00;;;;;;;;5060264;28;8857;-75
2021/12/21 07:10:28;;;;;;;;;13.67;13.67;;;;;;;;5075912;28;9013;-75
2021/12/21 07:18:43;;;;;;;;;8.00;8.00;;;;;;;;5033397;28;9289;-75
2021/12/21 07:21:10;;;;;;;;;12.67;12.67;;;;;;;;5027198;28;8851;-74
2021/12/21 07:23:37;;;;;;;;;11.67;11.67;;;;;;;;5051399;28;8886;-74
2021/12/21 07:26:04;;;;;;;;;5.67;4.33;;;;;;;;5071242;28;8875;-75
2021/12/21 07:28:32;;;;;;;;;10.00;10.00;;;;;;;;5075485;28;8838;-74
2021/12/21 07:30:59;;;;;;;;;10.00;10.00;;;;;;;;5061523;28;8815;-74
2021/12/21 07:33:27;;;;;;;;;13.67;13.67;;;;;;;;5078236;28;8870;-74
2021/12/21 07:35:55;;;;;;;;;8.67;8.67;;;;;;;;5080881;28;8900;-74
2021/12/21 07:38:25;;;;;;;;;7.33;7.33;;;;;;;;5073143;28;8858;-73
2021/12/21 07:40:52;;;;;;;;;9.67;9.67;;;;;;;;5072145;28;8971;-74
2021/12/21 07:43:19;;;;;;;;;12.33;12.33;;;;;;;;5054526;28;9613;-74
2021/12/21 07:45:46;;;;;;;;;10.33;10.33;;;;;;;;5074372;28;8851;-73
2021/12/21 07:48:15;;;;;;;;;11.67;11.67;;;;;;;;5058553;28;8889;-74
2021/12/21 07:50:45;;;;;;;;;14.00;13.33;;;;;;;;5061311;28;9593;-74
2021/12/21 07:53:15;;;;;;;;;12.33;12.33;;;;;;;;5070853;28;9681;-74
2021/12/21 07:55:42;;;;;;;;;14.00;14.00;;;;;;;;5069235;28;8844;-74
2021/12/21 07:58:10;;;;;;;;;13.00;13.00;;;;;;;;5067227;28;8896;-74
2021/12/21 08:00:38;;;;;;;;;13.67;13.67;;;;;;;;5078294;28;8890;-74
2021/12/21 08:03:06;;;;;;;;;17.67;17.67;;;;;;;;5074038;28;8878;-74
2021/12/21 08:05:35;;;;;;;;;20.00;20.00;;;;;;;;5082356;28;9412;-74
2021/12/21 08:08:11;;;;;;;;;14.00;14.00;;;;;;;;5074760;28;8907;-74
2021/12/21 08:10:44;;;;;;;;;16.67;16.67;;;;;;;;5080840;28;8843;-75
2021/12/21 08:13:12;;;;;;;;;10.33;10.33;;;;;;;;5080422;28;8853;-71
2021/12/21 08:15:40;;;;;;;;;19.33;19.33;;;;;;;;5075673;28;8987;-72
2021/12/21 08:18:07;;;;;;;;;15.33;15.33;;;;;;;;5077764;28;8860;-70
2021/12/21 08:20:35;;;;;;;;;17.33;17.33;;;;;;;;5079141;28;8954;-75
2021/12/21 08:23:03;;;;;;;;;16.00;16.00;;;;;;;;5065615;28;8843;-76
2021/12/21 08:25:30;;;;;;;;;20.00;20.00;;;;;;;;5075836;28;8893;-73
2021/12/21 08:28:00;;;;;;;;;14.00;14.00;;;;;;;;5079610;28;8976;-72
2021/12/21 08:30:28;;;;;;;;;26.67;26.67;;;;;;;;5072571;28;8798;-72
2021/12/21 08:32:57;;;;;;;;;22.00;22.00;;;;;;;;5086160;28;8880;-73
2021/12/21 08:35:24;;;;;;;;;26.00;26.00;;;;;;;;5069936;28;10026;-72
2021/12/21 08:37:59;;;;;;;;;32.33;31.67;;;;;;;;5073388;28;8876;-73
2021/12/21 08:40:29;;;;;;;;;32.67;32.67;;;;;;;;5076940;28;8863;-72
2021/12/21 08:42:58;;;;;;;;;29.33;29.33;;;;;;;;5074902;28;8869;-74
2021/12/21 08:45:26;;;;;;;;;29.00;26.00;;;;;;;;5072671;28;8866;-72
2021/12/21 08:47:55;;;;;;;;;28.00;28.00;;;;;;;;5073758;28;8865;-70
2021/12/21 08:50:22;;;;;;;;;17.00;17.00;;;;;;;;5080048;28;8869;-74
2021/12/21 08:52:50;;;;;;;;;23.00;23.00;;;;;;;;5076852;28;8868;-72
2021/12/21 08:55:18;;;;;;;;;29.67;28.67;;;;;;;;5073577;28;8971;-74
2021/12/21 08:57:45;;;;;;;;;23.33;23.33;;;;;;;;5080180;28;8858;-73
2021/12/21 09:00:16;;;;;;;;;14.00;14.00;;;;;;;;5073380;28;8870;-75
2021/12/21 09:02:43;;;;;;;;;18.67;18.67;;;;;;;;5072568;28;8865;-73
2021/12/21 09:05:14;;;;;;;;;16.67;16.67;;;;;;;;5074476;28;8918;-75
2021/12/21 09:07:42;;;;;;;;;18.00;18.00;;;;;;;;5073124;28;9423;-76
2021/12/21 09:10:12;;;;;;;;;13.00;12.33;;;;;;;;5073964;28;8856;-74
2021/12/21 09:12:40;;;;;;;;;15.00;15.00;;;;;;;;5076440;28;8874;-71
2021/12/21 09:15:09;;;;;;;;;15.67;15.67;;;;;;;;5076097;28;8858;-73
2021/12/21 09:17:39;;;;;;;;;17.33;14.00;;;;;;;;5080031;28;8902;-72
2021/12/21 09:20:08;;;;;;;;;15.00;15.00;;;;;;;;5078602;28;8868;-73
2021/12/21 09:22:35;;;;;;;;;5.67;5.67;;;;;;;;5062266;28;11539;-74
2021/12/21 09:25:08;;;;;;;;;17.33;17.33;;;;;;;;5054771;28;11552;-75
2021/12/21 09:27:37;;;;;;;;;14.00;9.67;;;;;;;;5083687;28;11577;-70
2021/12/21 09:30:07;;;;;;;;;18.00;16.00;;;;;;;;5077702;28;11522;-71
2021/12/21 09:32:34;;;;;;;;;15.00;15.00;;;;;;;;5084641;28;11521;-73
2021/12/21 09:35:04;;;;;;;;;21.00;14.00;;;;;;;;5071276;28;11653;-72
2021/12/21 09:37:32;;;;;;;;;19.75;15.75;;;;;;;;5083204;28;11610;-72
2021/12/21 09:40:00;;;;;;;;;15.75;12.00;;;;;;;;5084696;28;11589;-72
2021/12/21 09:42:29;;;;;;;;;19.25;15.25;;;;;;;;5086171;28;11561;-71
2021/12/21 09:44:58;;;;;;;;;24.25;18.00;;;;;;;;5074208;28;11562;-73
2021/12/21 09:47:29;;;;;;;;;23.00;21.33;;;;;;;;5080436;28;11661;-74
2021/12/21 09:49:57;;;;;;;;;10.50;10.50;;;;;;;;5074441;28;12745;-71
2021/12/21 09:52:29;;;;;;;;;14.25;12.25;;;;;;;;5081117;28;11523;-71
2021/12/21 09:55:01;;;;;;;;;15.00;12.75;;;;;;;;5082279;28;11519;-76
2021/12/21 09:57:29;;;;;;;;;13.25;13.25;;;;;;;;5078729;28;11528;-70
2021/12/21 09:59:56;;;;;;;;;16.75;13.25;;;;;;;;5073268;28;11713;-71
2021/12/21 10:02:26;;;;;;;;;12.50;12.50;;;;;;;;5081715;28;11484;-71
2021/12/21 10:04:56;;;;;;;;;20.75;18.25;;;;;;;;5085341;28;12284;-70
2021/12/21 10:07:27;;;;;;;;;10.25;10.25;;;;;;;;5081456;28;11530;-70
2021/12/21 10:10:07;;;;;;;;;13.75;12.00;;;;;;;;5073366;28;11514;-73
2021/12/21 10:12:38;;;;;;;;;22.75;19.00;;;;;;;;5067281;28;12152;-75
2021/12/21 10:15:10;;;;;;;;;15.00;15.00;;;;;;;;5077442;28;12335;-72
2021/12/21 10:17:38;;;;;;;;;15.75;13.00;;;;;;;;5085567;28;12427;-71
2021/12/21 10:20:08;;;;;;;;;8.00;6.50;;;;;;;;5082111;28;11533;-72
2021/12/21 10:22:40;;;;;;;;;13.75;13.75;;;;;;;;5066821;28;11715;-70
2021/12/21 10:25:10;;;;;;;;;10.75;10.75;;;;;;;;5076067;28;12475;-72
2021/12/21 10:27:45;;;;;;;;;12.00;10.75;;;;;;;;5080665;28;11518;-71
2021/12/21 10:30:13;;;;;;;;;15.25;15.25;;;;;;;;5072075;28;11564;-74
2021/12/21 10:32:57;;;;;;;;;39.00;33.25;;;;;;;;5080516;28;11504;-72
2021/12/21 10:35:34;;;;;;;;;27.50;24.75;;;;;;;;5084706;28;11630;-71
2021/12/21 10:38:04;;;;;;;;;14.00;12.00;;;;;;;;5073381;28;11642;-72
2021/12/21 10:40:32;;;;;;;;;11.25;9.50;;;;;;;;5080671;28;11618;-70
2021/12/21 10:43:01;;;;;;;;;11.25;11.25;;;;;;;;5062141;28;11605;-71
2021/12/21 10:45:34;;;;;;;;;18.00;13.25;;;;;;;;5070033;28;11514;-71
2021/12/21 10:48:07;;;;;;;;;14.00;12.25;;;;;;;;5057422;28;12311;-70
2021/12/21 10:50:36;;;;;;;;;20.00;15.25;;;;;;;;5069581;28;11537;-73
2021/12/21 10:53:07;;;;;;;;;10.25;10.25;;;;;;;;5074200;28;11726;-71
2021/12/21 10:55:38;;;;;;;;;4.50;4.50;;;;;;;;5076582;28;11464;-76
2021/12/21 10:58:11;;;;;;;;;13.75;12.00;;;;;;;;5050405;28;11594;-76
2021/12/21 11:00:46;;;;;;;;;5.50;5.50;;;;;;;;5071227;28;11443;-75
2021/12/21 11:03:17;;;;;;;;;9.00;9.00;;;;;;;;5077985;28;11484;-71
2021/12/21 11:05:44;;;;;;;;;12.00;9.00;;;;;;;;5083235;28;11446;-71
2021/12/21 11:08:24;;;;;;;;;15.00;12.00;;;;;;;;5063466;28;11464;-72
2021/12/21 11:10:58;;;;;;;;;8.75;8.00;;;;;;;;5067639;28;12371;-73
2021/12/21 11:13:30;;;;;;;;;15.75;13.00;;;;;;;;5064218;28;11601;-72
2021/12/21 11:16:03;;;;;;;;;11.50;8.75;;;;;;;;5080497;28;11523;-72
2021/12/21 11:18:31;;;;;;;;;12.50;11.50;;;;;;;;5073194;28;11511;-71
2021/12/21 11:20:59;;;;;;;;;12.25;9.50;;;;;;;;5058741;28;12275;-71
2021/12/21 11:23:32;;;;;;;;;12.25;10.50;;;;;;;;5072265;28;11529;-77
2021/12/21 11:26:00;;;;;;;;;6.50;6.00;;;;;;;;5063793;28;11525;-71
2021/12/21 11:28:35;;;;;;;;;15.00;10.50;;;;;;;;5078163;28;11471;-70
2021/12/21 11:31:04;;;;;;;;;10.00;8.25;;;;;;;;5068213;28;11494;-72
2021/12/21 11:33:36;;;;;;;;;8.75;8.75;;;;;;;;5064594;28;11518;-71
2021/12/21 11:38:51;;;;;;;;;16.75;13.50;;;;;;;;5073966;28;12255;-74
2021/12/21 11:41:18;;;;;;;;;16.75;14.75;;;;;;;;5074375;28;11641;-70
2021/12/21 11:43:54;;;;;;;;;12.50;8.00;;;;;;;;5076422;28;11608;-73
2021/12/21 11:46:30;;;;;;;;;24.50;20.75;;;;;;;;5076641;28;11508;-73
2021/12/21 11:49:01;;;;;;;;;15.50;12.50;;;;;;;;5074004;28;11652;-76
2021/12/21 11:51:31;;;;;;;;;16.75;14.50;;;;;;;;5063348;28;11540;-72
2021/12/21 11:53:59;;;;;;;;;14.25;12.75;;;;;;;;5071080;28;12576;-71
2021/12/21 11:56:28;;;;;;;;;10.00;8.50;;;;;;;;5080168;28;11706;-72
2021/12/21 11:58:58;;;;;;;;;11.00;10.00;;;;;;;;5075424;28;11519;-71
2021/12/21 12:01:26;;;;;;;;;14.00;10.75;;;;;;;;5085072;28;11445;-73
2021/12/21 12:03:58;;;;;;;;;8.75;8.75;;;;;;;;5081911;28;11455;-73
2021/12/21 12:06:26;;;;;;;;;17.50;15.75;;;;;;;;5083188;28;11475;-74
2021/12/21 12:09:00;;;;;;;;;12.50;12.50;;;;;;;;5078001;28;11548;-72
2021/12/21 12:11:35;;;;;;;;;24.00;21.50;;;;;;;;5075592;28;11497;-73
2021/12/21 12:14:08;;;;;;;;;17.50;16.00;;;;;;;;5052751;28;11550;-79
2021/12/21 12:16:44;;;;;;;;;11.00;10.75;;;;;;;;5071380;28;11581;-74
2021/12/21 12:19:13;;;;;;;;;12.75;11.25;;;;;;;;5076085;28;12332;-73
2021/12/21 12:21:53;;;;;;;;;10.75;10.75;;;;;;;;5077380;28;11502;-72
2021/12/21 12:24:34;;;;;;;;;7.50;7.50;;;;;;;;5079397;28;11515;-75
2021/12/21 12:27:08;;;;;;;;;10.25;10.25;;;;;;;;5076312;28;11442;-75
2021/12/21 12:29:48;;;;;;;;;12.00;8.25;;;;;;;;5062391;28;11517;-78
2021/12/21 12:32:16;;;;;;;;;9.25;8.75;;;;;;;;5079258;28;11406;-74
2021/12/21 12:34:43;;;;;;;;;10.25;6.50;;;;;;;;5079138;28;12169;-74
2021/12/21 12:37:20;;;;;;;;;11.00;7.25;;;;;;;;5081678;28;11449;-73
2021/12/21 12:39:49;;;;;;;;;6.75;6.75;;;;;;;;5078563;28;11490;-74
2021/12/21 12:42:22;;;;;;;;;11.00;9.00;;;;;;;;5077279;28;12318;-75
2021/12/21 12:45:05;;;;;;;;;13.00;9.25;;;;;;;;5079990;28;11451;-78
2021/12/21 12:47:32;;;;;;;;;6.75;6.75;;;;;;;;5075409;28;11473;-74
2021/12/21 12:50:00;;;;;;;;;10.00;7.50;;;;;;;;5072393;28;11196;-72
2021/12/21 12:52:30;;;;;;;;;8.00;8.00;;;;;;;;5061986;28;11179;-72
2021/12/21 12:55:00;;;;;;;;;10.75;7.00;;;;;;;;5076273;28;11082;-72
2021/12/21 12:57:32;;;;;;;;;6.00;6.00;;;;;;;;5080498;28;11177;-71
2021/12/21 13:00:10;;;;;;;;;6.25;4.00;;;;;;;;5080215;28;11275;-73
2021/12/21 13:02:37;;;;;;;;;5.00;5.00;;;;;;;;5081251;28;11104;-75
2021/12/21 13:05:09;;;;;;;;;13.25;7.00;;;;;;;;5081677;28;10907;-73
2021/12/21 13:07:39;;;;;;;;;8.00;8.00;;;;;;;;5078932;28;11225;-71
2021/12/21 13:10:09;;;;;;;;;6.75;6.00;;;;;;;;5085537;28;11060;-75
2021/12/21 13:12:38;;;;;;;;;13.00;10.00;;;;;;;;5082349;28;11191;-74
2021/12/21 13:15:07;;;;;;;;;13.50;10.00;;;;;;;;5084500;28;11080;-73
2021/12/21 13:17:35;;;;;;;;;10.50;6.25;;;;;;;;5078612;28;11220;-72
2021/12/21 13:20:03;;;;;;;;;9.25;9.25;;;;;;;;5084891;28;11075;-71
2021/12/21 13:22:31;;;;;;;;;5.75;5.75;;;;;;;;5052553;28;11071;-73
2021/12/21 13:24:58;;;;;;;;;10.50;7.50;;;;;;;;5066656;28;10921;-73
2021/12/21 13:27:27;;;;;;;;;7.75;7.00;;;;;;;;5084689;28;10917;-73
2021/12/21 13:29:57;;;;;;;;;7.50;6.75;;;;;;;;5073642;28;11787;-74
2021/12/21 13:32:30;;;;;;;;;7.00;6.00;;;;;;;;5083790;28;10823;-72
2021/12/21 13:34:58;;;;;;;;;15.00;10.00;;;;;;;;5083999;28;10913;-72
2021/12/21 13:37:27;;;;;;;;;9.25;6.00;;;;;;;;5079612;28;10962;-72
2021/12/21 13:39:57;;;;;;;;;10.00;8.25;;;;;;;;5069987;28;10792;-72
2021/12/21 13:42:28;;;;;;;;;9.00;9.00;;;;;;;;5081495;28;10925;-73
2021/12/21 13:44:59;;;;;;;;;11.25;10.25;;;;;;;;5066938;28;11519;-72
2021/12/21 13:47:29;;;;;;;;;11.75;10.75;;;;;;;;5075583;28;10930;-74
2021/12/21 13:50:00;;;;;;;;;9.00;9.00;;;;;;;;5084690;28;11791;-72
2021/12/21 13:52:29;;;;;;;;;6.50;6.00;;;;;;;;5081698;28;10934;-74
2021/12/21 13:54:56;;;;;;;;;5.75;5.75;;;;;;;;5078601;28;10924;-73
2021/12/21 13:57:26;;;;;;;;;2.00;2.00;;;;;;;;5077232;28;10845;-79
2021/12/21 13:59:57;;;;;;;;;6.50;6.50;;;;;;;;5082942;28;10903;-76
2021/12/21 14:02:31;;;;;;;;;13.25;12.00;;;;;;;;5056646;28;10920;-75
2021/12/21 14:05:03;;;;;;;;;9.25;9.25;;;;;;;;5075041;28;11018;-76
2021/12/21 14:07:37;;;;;;;;;10.25;6.00;;;;;;;;5073585;28;11015;-74
2021/12/21 14:10:12;;;;;;;;;5.75;3.00;;;;;;;;5080721;28;11020;-74
2021/12/21 14:12:40;;;;;;;;;9.00;6.25;;;;;;;;5075395;28;11031;-75
2021/12/21 14:15:10;;;;;;;;;12.50;7.50;;;;;;;;5081219;28;11926;-74
2021/12/21 14:17:42;;;;;;;;;8.75;7.00;;;;;;;;5064136;28;11490;-76
2021/12/21 14:20:10;;;;;;;;;6.00;6.00;;;;;;;;5073372;28;11251;-74
2021/12/21 14:22:41;;;;;;;;;7.50;7.00;;;;;;;;5076218;28;11091;-75
2021/12/21 14:25:17;;;;;;;;;2.25;1.00;;;;;;;;5062591;28;11426;-76
2021/12/21 14:27:45;;;;;;;;;10.00;10.00;;;;;;;;5081024;28;11450;-74
2021/12/21 14:30:17;;;;;;;;;6.75;6.75;;;;;;;;5078927;28;11550;-75
2021/12/21 14:33:07;;;;;;;;;12.50;12.50;;;;;;;;5075105;28;11448;-75
2021/12/21 14:35:36;;;;;;;;;14.50;12.25;;;;;;;;5066972;28;12242;-75
2021/12/21 14:38:11;;;;;;;;;12.00;12.00;;;;;;;;5073687;28;11489;-73
2021/12/21 14:40:46;;;;;;;;;18.00;15.75;;;;;;;;5083178;28;11491;-74
2021/12/21 14:43:24;;;;;;;;;24.50;20.50;;;;;;;;5081293;28;11538;-75
2021/12/21 14:45:57;;;;;;;;;17.00;17.00;;;;;;;;5076752;28;11518;-74
2021/12/21 14:48:27;;;;;;;;;33.75;29.75;;;;;;;;5079923;28;13007;-74
2021/12/21 14:51:08;;;;;;;;;34.00;32.50;;;;;;;;5065016;28;11530;-75
2021/12/21 14:53:45;;;;;;;;;23.00;19.50;;;;;;;;5072694;28;11616;-74
2021/12/21 14:56:15;;;;;;;;;20.25;19.75;;;;;;;;5082618;28;11614;-74
2021/12/21 14:58:42;;;;;;;;;16.75;16.25;;;;;;;;5074117;28;11538;-75
2021/12/21 15:01:14;;;;;;;;;26.00;20.75;;;;;;;;5061359;28;11527;-74
2021/12/21 15:03:43;;;;;;;;;11.75;11.75;;;;;;;;5076079;28;11562;-72
2021/12/21 15:06:10;;;;;;;;;19.00;14.00;;;;;;;;5078461;28;11554;-75
2021/12/21 15:08:38;;;;;;;;;14.00;14.00;;;;;;;;5070010;28;11529;-76
2021/12/21 15:11:05;;;;;;;;;13.50;13.50;;;;;;;;5046694;28;11554;-74
2021/12/21 15:13:32;;;;;;;;;14.50;11.00;;;;;;;;5070860;28;11626;-74
2021/12/21 15:16:00;;;;;;;;;17.75;16.50;;;;;;;;5062144;28;11561;-76
2021/12/21 15:18:29;;;;;;;;;28.25;25.00;;;;;;;;5072109;28;11630;-73
2021/12/21 15:20:56;;;;;;;;;20.00;17.50;;;;;;;;5061799;28;12161;-77
2021/12/21 15:23:25;;;;;;;;;16.25;15.50;;;;;;;;5076093;28;11578;-78
2021/12/21 15:25:53;;;;;;;;;8.00;8.00;;;;;;;;5068118;28;11657;-76
2021/12/21 15:28:22;;;;;;;;;17.00;14.00;;;;;;;;5075072;28;11468;-82